Krasnoural'sk, Russia
Current Conditions -  °F | °C
As of 2:30 PM on Saturday 25 Oct 2014 (Local Time) from USSS Reporting Station
Blowing Snow Blowing Snow  
Wind Chill: -5°   Ceiling: 3300
Heat Index: 10°   Visibility: 4mi
Dew Point:   Wind: 13mph
Humidity: 79%   Direction: 330°NNW
Pressure: 29.91"   Gusts: 20mph
Location:  58.22°N, 60.06°E
Report Text: USSS 250930Z 33006G09MPS 7000 -SHSN DRSN FEW007 BKN033CB OVC067M12/M15 Q1013 76420337 26990325 NOSIG RMK QFE739
Loading
Personal Weather Stations






























Interactive Weather Map
Tropical Storm Tracking
New forecast layout! Learn more

10-Day Weather Forecast

Advertisements
Track Severe Weather on mobile